sensor_id;sensor_type;location;lat;lon;timestamp;temperature;humidity
48988;DHT22;34799;51.440;-2.534;2022-10-16T00:01:38;12.70;99.90
48988;DHT22;34799;51.440;-2.534;2022-10-16T00:04:05;12.60;99.90
48988;DHT22;34799;51.440;-2.534;2022-10-16T00:06:32;12.60;99.90
48988;DHT22;34799;51.440;-2.534;2022-10-16T00:09:01;12.60;99.90
48988;DHT22;34799;51.440;-2.534;2022-10-16T00:11:31;12.60;99.90
48988;DHT22;34799;51.440;-2.534;2022-10-16T00:14:07;12.60;99.90
48988;DHT22;34799;51.440;-2.534;2022-10-16T00:16:36;12.50;99.90
48988;DHT22;34799;51.440;-2.534;2022-10-16T00:19:04;12.50;99.90
48988;DHT22;34799;51.440;-2.534;2022-10-16T00:21:32;12.50;99.90
48988;DHT22;34799;51.440;-2.534;2022-10-16T00:24:18;12.40;99.90
48988;DHT22;34799;51.440;-2.534;2022-10-16T00:26:49;12.40;99.90
48988;DHT22;34799;51.440;-2.534;2022-10-16T00:29:16;12.50;99.90
48988;DHT22;34799;51.440;-2.534;2022-10-16T00:31:43;12.40;99.90
48988;DHT22;34799;51.440;-2.534;2022-10-16T00:34:10;12.40;99.90
48988;DHT22;34799;51.440;-2.534;2022-10-16T00:36:38;12.40;99.90
48988;DHT22;34799;51.440;-2.534;2022-10-16T00:39:05;12.30;99.90
48988;DHT22;34799;51.440;-2.534;2022-10-16T00:41:33;12.30;99.90
48988;DHT22;34799;51.440;-2.534;2022-10-16T00:44:03;12.30;99.90
48988;DHT22;34799;51.440;-2.534;2022-10-16T00:46:41;12.30;99.90
48988;DHT22;34799;51.440;-2.534;2022-10-16T00:54:19;12.20;99.90
48988;DHT22;34799;51.440;-2.534;2022-10-16T00:56:48;12.20;99.90
48988;DHT22;34799;51.440;-2.534;2022-10-16T00:59:20;12.20;99.90
48988;DHT22;34799;51.440;-2.534;2022-10-16T01:01:51;12.20;99.90
48988;DHT22;34799;51.440;-2.534;2022-10-16T01:04:19;12.10;99.90
48988;DHT22;34799;51.440;-2.534;2022-10-16T01:10:17;12.10;99.90
48988;DHT22;34799;51.440;-2.534;2022-10-16T01:18:18;12.10;99.90
48988;DHT22;34799;51.440;-2.534;2022-10-16T01:21:01;12.00;99.90
48988;DHT22;34799;51.440;-2.534;2022-10-16T01:29:11;12.00;99.90
48988;DHT22;34799;51.440;-2.534;2022-10-16T01:31:44;11.90;99.90
48988;DHT22;34799;51.440;-2.534;2022-10-16T01:34:19;12.00;99.90
48988;DHT22;34799;51.440;-2.534;2022-10-16T01:36:52;11.90;99.90
48988;DHT22;34799;51.440;-2.534;2022-10-16T01:39:24;11.90;99.90
48988;DHT22;34799;51.440;-2.534;2022-10-16T01:42:01;11.90;99.90
48988;DHT22;34799;51.440;-2.534;2022-10-16T01:44:33;11.90;99.90
48988;DHT22;34799;51.440;-2.534;2022-10-16T01:47:00;11.90;99.90
48988;DHT22;34799;51.440;-2.534;2022-10-16T01:49:32;11.90;99.90
48988;DHT22;34799;51.440;-2.534;2022-10-16T01:52:04;11.90;99.90
48988;DHT22;34799;51.440;-2.534;2022-10-16T01:54:34;11.80;99.90
48988;DHT22;34799;51.440;-2.534;2022-10-16T01:57:04;11.80;99.90
48988;DHT22;34799;51.440;-2.534;2022-10-16T01:59:40;11.70;99.90
48988;DHT22;34799;51.440;-2.534;2022-10-16T02:02:31;11.70;99.90
48988;DHT22;34799;51.440;-2.534;2022-10-16T02:08:33;11.80;99.90
48988;DHT22;34799;51.440;-2.534;2022-10-16T02:11:34;11.80;99.90
48988;DHT22;34799;51.440;-2.534;2022-10-16T02:14:20;11.90;99.90
48988;DHT22;34799;51.440;-2.534;2022-10-16T02:17:16;12.40;99.90
48988;DHT22;34799;51.440;-2.534;2022-10-16T02:20:07;11.00;99.90
48988;DHT22;34799;51.440;-2.534;2022-10-16T02:22:43;11.10;99.90
48988;DHT22;34799;51.440;-2.534;2022-10-16T02:25:49;11.80;99.90
48988;DHT22;34799;51.440;-2.534;2022-10-16T02:28:45;13.80;99.90
48988;DHT22;34799;51.440;-2.534;2022-10-16T02:31:25;11.60;99.90
48988;DHT22;34799;51.440;-2.534;2022-10-16T02:34:06;11.60;99.90
48988;DHT22;34799;51.440;-2.534;2022-10-16T02:36:56;11.70;99.90
48988;DHT22;34799;51.440;-2.534;2022-10-16T02:39:28;11.60;99.90
48988;DHT22;34799;51.440;-2.534;2022-10-16T02:41:57;11.70;99.90
48988;DHT22;34799;51.440;-2.534;2022-10-16T02:44:36;12.00;99.90
48988;DHT22;34799;51.440;-2.534;2022-10-16T02:47:09;11.70;99.90
48988;DHT22;34799;51.440;-2.534;2022-10-16T02:49:40;11.70;99.90
48988;DHT22;34799;51.440;-2.534;2022-10-16T02:52:20;11.10;99.90
48988;DHT22;34799;51.440;-2.534;2022-10-16T02:55:08;10.70;99.90
48988;DHT22;34799;51.440;-2.534;2022-10-16T02:58:23;11.70;99.90
48988;DHT22;34799;51.440;-2.534;2022-10-16T03:01:05;11.70;99.90
48988;DHT22;34799;51.440;-2.534;2022-10-16T03:03:45;10.00;99.90
48988;DHT22;34799;51.440;-2.534;2022-10-16T03:06:15;11.70;99.90
48988;DHT22;34799;51.440;-2.534;2022-10-16T03:13:05;11.40;99.90
48988;DHT22;34799;51.440;-2.534;2022-10-16T03:15:34;11.40;99.90
48988;DHT22;34799;51.440;-2.534;2022-10-16T03:18:03;11.50;99.90
48988;DHT22;34799;51.440;-2.534;2022-10-16T03:20:35;11.70;99.90
48988;DHT22;34799;51.440;-2.534;2022-10-16T03:23:05;11.40;99.90
48988;DHT22;34799;51.440;-2.534;2022-10-16T03:25:40;11.30;99.90
48988;DHT22;34799;51.440;-2.534;2022-10-16T03:28:10;11.60;99.90
48988;DHT22;34799;51.440;-2.534;2022-10-16T03:31:26;11.00;99.90
48988;DHT22;34799;51.440;-2.534;2022-10-16T03:33:53;11.30;99.90
48988;DHT22;34799;51.440;-2.534;2022-10-16T03:36:20;11.30;99.90
48988;DHT22;34799;51.440;-2.534;2022-10-16T03:38:48;11.40;99.90
48988;DHT22;34799;51.440;-2.534;2022-10-16T03:41:15;11.30;99.90
48988;DHT22;34799;51.440;-2.534;2022-10-16T03:43:42;11.50;99.90
48988;DHT22;34799;51.440;-2.534;2022-10-16T03:46:09;11.40;99.90
48988;DHT22;34799;51.440;-2.534;2022-10-16T03:48:36;11.50;99.90
48988;DHT22;34799;51.440;-2.534;2022-10-16T03:51:03;11.40;99.90
48988;DHT22;34799;51.440;-2.534;2022-10-16T03:53:33;11.40;99.90
48988;DHT22;34799;51.440;-2.534;2022-10-16T03:56:00;11.40;99.90
48988;DHT22;34799;51.440;-2.534;2022-10-16T03:58:27;11.40;99.90
48988;DHT22;34799;51.440;-2.534;2022-10-16T04:00:54;11.30;99.90
48988;DHT22;34799;51.440;-2.534;2022-10-16T04:03:21;11.30;99.90
48988;DHT22;34799;51.440;-2.534;2022-10-16T04:05:51;11.30;99.90
48988;DHT22;34799;51.440;-2.534;2022-10-16T04:08:18;11.10;99.90
48988;DHT22;34799;51.440;-2.534;2022-10-16T04:10:45;11.10;99.90
48988;DHT22;34799;51.440;-2.534;2022-10-16T04:13:12;11.10;99.90
48988;DHT22;34799;51.440;-2.534;2022-10-16T04:15:39;11.10;99.90
48988;DHT22;34799;51.440;-2.534;2022-10-16T04:18:06;11.10;99.90
48988;DHT22;34799;51.440;-2.534;2022-10-16T04:20:34;11.00;99.90
48988;DHT22;34799;51.440;-2.534;2022-10-16T04:23:01;11.00;99.90
48988;DHT22;34799;51.440;-2.534;2022-10-16T04:25:28;11.10;99.90
48988;DHT22;34799;51.440;-2.534;2022-10-16T04:27:56;11.00;99.90
48988;DHT22;34799;51.440;-2.534;2022-10-16T04:30:23;11.00;99.90
48988;DHT22;34799;51.440;-2.534;2022-10-16T04:32:51;11.00;99.90
48988;DHT22;34799;51.440;-2.534;2022-10-16T04:35:20;11.00;99.90
48988;DHT22;34799;51.440;-2.534;2022-10-16T04:37:47;11.00;99.90
48988;DHT22;34799;51.440;-2.534;2022-10-16T04:40:15;11.00;99.90
48988;DHT22;34799;51.440;-2.534;2022-10-16T04:42:42;11.00;99.90
48988;DHT22;34799;51.440;-2.534;2022-10-16T04:45:10;11.00;99.90
48988;DHT22;34799;51.440;-2.534;2022-10-16T04:47:39;10.90;99.90
48988;DHT22;34799;51.440;-2.534;2022-10-16T04:50:06;10.90;99.90
48988;DHT22;34799;51.440;-2.534;2022-10-16T04:52:34;10.90;99.90
48988;DHT22;34799;51.440;-2.534;2022-10-16T04:55:03;11.00;99.90
48988;DHT22;34799;51.440;-2.534;2022-10-16T04:57:30;11.00;99.90
48988;DHT22;34799;51.440;-2.534;2022-10-16T04:59:57;11.10;99.90
48988;DHT22;34799;51.440;-2.534;2022-10-16T05:02:24;11.10;99.90
48988;DHT22;34799;51.440;-2.534;2022-10-16T05:04:52;11.10;99.90
48988;DHT22;34799;51.440;-2.534;2022-10-16T05:07:19;10.60;99.90
48988;DHT22;34799;51.440;-2.534;2022-10-16T05:09:47;11.20;99.90
48988;DHT22;34799;51.440;-2.534;2022-10-16T05:12:14;11.20;99.90
48988;DHT22;34799;51.440;-2.534;2022-10-16T05:14:41;11.30;99.90
48988;DHT22;34799;51.440;-2.534;2022-10-16T05:17:08;11.40;99.90
48988;DHT22;34799;51.440;-2.534;2022-10-16T05:19:35;11.40;99.90
48988;DHT22;34799;51.440;-2.534;2022-10-16T05:22:02;11.40;99.90
48988;DHT22;34799;51.440;-2.534;2022-10-16T05:24:31;11.40;99.90
48988;DHT22;34799;51.440;-2.534;2022-10-16T05:26:58;11.50;99.90
48988;DHT22;34799;51.440;-2.534;2022-10-16T05:29:25;11.40;99.90
48988;DHT22;34799;51.440;-2.534;2022-10-16T05:31:53;11.40;99.90
48988;DHT22;34799;51.440;-2.534;2022-10-16T05:34:20;11.40;99.90
48988;DHT22;34799;51.440;-2.534;2022-10-16T05:36:48;11.40;99.90
48988;DHT22;34799;51.440;-2.534;2022-10-16T05:39:16;11.40;99.90
48988;DHT22;34799;51.440;-2.534;2022-10-16T05:41:43;11.40;99.90
48988;DHT22;34799;51.440;-2.534;2022-10-16T05:44:11;11.30;99.90
48988;DHT22;34799;51.440;-2.534;2022-10-16T05:46:38;11.30;99.90
48988;DHT22;34799;51.440;-2.534;2022-10-16T05:49:05;11.40;99.90
48988;DHT22;34799;51.440;-2.534;2022-10-16T05:51:33;11.30;99.90
48988;DHT22;34799;51.440;-2.534;2022-10-16T05:54:00;11.30;99.90
48988;DHT22;34799;51.440;-2.534;2022-10-16T05:56:27;11.30;99.90
48988;DHT22;34799;51.440;-2.534;2022-10-16T05:58:55;11.30;99.90
48988;DHT22;34799;51.440;-2.534;2022-10-16T06:01:22;11.30;99.90
48988;DHT22;34799;51.440;-2.534;2022-10-16T06:03:52;11.30;99.90
48988;DHT22;34799;51.440;-2.534;2022-10-16T06:06:21;11.30;99.90
48988;DHT22;34799;51.440;-2.534;2022-10-16T06:08:49;11.30;99.90
48988;DHT22;34799;51.440;-2.534;2022-10-16T06:11:23;11.30;99.90
48988;DHT22;34799;51.440;-2.534;2022-10-16T06:13:54;11.20;99.90
48988;DHT22;34799;51.440;-2.534;2022-10-16T06:16:24;11.20;99.90
48988;DHT22;34799;51.440;-2.534;2022-10-16T06:18:54;11.20;99.90
48988;DHT22;34799;51.440;-2.534;2022-10-16T06:21:24;11.20;99.90
48988;DHT22;34799;51.440;-2.534;2022-10-16T06:23:55;11.20;99.90
48988;DHT22;34799;51.440;-2.534;2022-10-16T06:26:25;11.10;99.90
48988;DHT22;34799;51.440;-2.534;2022-10-16T06:28:55;11.10;99.90
48988;DHT22;34799;51.440;-2.534;2022-10-16T06:31:22;11.10;99.90
48988;DHT22;34799;51.440;-2.534;2022-10-16T06:33:51;11.10;99.90
48988;DHT22;34799;51.440;-2.534;2022-10-16T06:36:18;11.10;99.90
48988;DHT22;34799;51.440;-2.534;2022-10-16T06:38:46;11.10;99.90
48988;DHT22;34799;51.440;-2.534;2022-10-16T06:41:18;11.10;99.90
48988;DHT22;34799;51.440;-2.534;2022-10-16T06:43:47;11.00;99.90
48988;DHT22;34799;51.440;-2.534;2022-10-16T06:46:17;10.90;99.90
48988;DHT22;34799;51.440;-2.534;2022-10-16T06:48:44;10.90;99.90
48988;DHT22;34799;51.440;-2.534;2022-10-16T06:51:15;10.90;99.90
48988;DHT22;34799;51.440;-2.534;2022-10-16T06:53:53;10.80;99.90
48988;DHT22;34799;51.440;-2.534;2022-10-16T06:56:30;10.90;99.90
48988;DHT22;34799;51.440;-2.534;2022-10-16T06:58:59;10.90;99.90
48988;DHT22;34799;51.440;-2.534;2022-10-16T07:01:27;10.80;99.90
48988;DHT22;34799;51.440;-2.534;2022-10-16T07:03:54;10.80;99.90
48988;DHT22;34799;51.440;-2.534;2022-10-16T07:06:23;10.70;99.90
48988;DHT22;34799;51.440;-2.534;2022-10-16T07:08:52;10.70;99.90
48988;DHT22;34799;51.440;-2.534;2022-10-16T07:11:21;10.80;99.90
48988;DHT22;34799;51.440;-2.534;2022-10-16T07:13:49;10.70;99.90
48988;DHT22;34799;51.440;-2.534;2022-10-16T07:16:19;10.70;99.90
48988;DHT22;34799;51.440;-2.534;2022-10-16T07:18:47;10.60;99.90
48988;DHT22;34799;51.440;-2.534;2022-10-16T07:21:18;10.60;99.90
48988;DHT22;34799;51.440;-2.534;2022-10-16T07:23:58;10.60;99.90
48988;DHT22;34799;51.440;-2.534;2022-10-16T07:26:29;10.60;99.90
48988;DHT22;34799;51.440;-2.534;2022-10-16T07:28:57;10.70;99.90
48988;DHT22;34799;51.440;-2.534;2022-10-16T07:31:25;10.70;99.90
48988;DHT22;34799;51.440;-2.534;2022-10-16T07:33:54;10.70;99.90
48988;DHT22;34799;51.440;-2.534;2022-10-16T07:36:21;10.70;99.90
48988;DHT22;34799;51.440;-2.534;2022-10-16T07:38:48;10.70;99.90
48988;DHT22;34799;51.440;-2.534;2022-10-16T07:41:18;10.70;99.90
48988;DHT22;34799;51.440;-2.534;2022-10-16T07:43:48;10.70;99.90
48988;DHT22;34799;51.440;-2.534;2022-10-16T07:46:16;10.80;99.90
48988;DHT22;34799;51.440;-2.534;2022-10-16T07:48:43;10.80;99.90
48988;DHT22;34799;51.440;-2.534;2022-10-16T07:51:16;10.90;99.90
48988;DHT22;34799;51.440;-2.534;2022-10-16T07:53:43;10.90;99.90
48988;DHT22;34799;51.440;-2.534;2022-10-16T07:56:11;11.00;99.90
48988;DHT22;34799;51.440;-2.534;2022-10-16T07:58:40;11.00;99.90
48988;DHT22;34799;51.440;-2.534;2022-10-16T08:01:09;11.10;99.90
48988;DHT22;34799;51.440;-2.534;2022-10-16T08:03:37;11.20;99.90
48988;DHT22;34799;51.440;-2.534;2022-10-16T08:06:04;11.20;99.90
48988;DHT22;34799;51.440;-2.534;2022-10-16T08:08:32;11.30;99.90
48988;DHT22;34799;51.440;-2.534;2022-10-16T08:10:59;11.30;99.90
48988;DHT22;34799;51.440;-2.534;2022-10-16T08:13:26;11.40;99.90
48988;DHT22;34799;51.440;-2.534;2022-10-16T08:15:54;11.40;99.90
48988;DHT22;34799;51.440;-2.534;2022-10-16T08:18:22;11.50;99.90
48988;DHT22;34799;51.440;-2.534;2022-10-16T08:20:57;11.50;99.90
48988;DHT22;34799;51.440;-2.534;2022-10-16T08:23:27;11.50;99.90
48988;DHT22;34799;51.440;-2.534;2022-10-16T08:25:54;11.60;99.90
48988;DHT22;34799;51.440;-2.534;2022-10-16T08:28:22;11.60;99.90
48988;DHT22;34799;51.440;-2.534;2022-10-16T08:30:51;11.70;99.90
48988;DHT22;34799;51.440;-2.534;2022-10-16T08:33:18;11.80;99.90
48988;DHT22;34799;51.440;-2.534;2022-10-16T08:35:52;11.90;99.90
48988;DHT22;34799;51.440;-2.534;2022-10-16T08:38:21;11.90;99.90
48988;DHT22;34799;51.440;-2.534;2022-10-16T08:40:48;12.00;99.90
48988;DHT22;34799;51.440;-2.534;2022-10-16T08:51:26;12.00;99.90
48988;DHT22;34799;51.440;-2.534;2022-10-16T08:54:01;12.00;99.90
48988;DHT22;34799;51.440;-2.534;2022-10-16T08:56:29;12.00;99.90
48988;DHT22;34799;51.440;-2.534;2022-10-16T08:58:58;12.10;99.90
48988;DHT22;34799;51.440;-2.534;2022-10-16T09:01:43;12.20;99.90
48988;DHT22;34799;51.440;-2.534;2022-10-16T09:18:34;12.60;99.90
48988;DHT22;34799;51.440;-2.534;2022-10-16T09:21:29;12.70;99.90
48988;DHT22;34799;51.440;-2.534;2022-10-16T09:24:07;12.70;99.90
48988;DHT22;34799;51.440;-2.534;2022-10-16T09:26:36;12.70;99.90
48988;DHT22;34799;51.440;-2.534;2022-10-16T09:29:03;12.80;99.90
48988;DHT22;34799;51.440;-2.534;2022-10-16T09:31:31;12.80;99.90
48988;DHT22;34799;51.440;-2.534;2022-10-16T09:34:00;12.80;99.90
48988;DHT22;34799;51.440;-2.534;2022-10-16T09:36:42;12.90;99.90
48988;DHT22;34799;51.440;-2.534;2022-10-16T09:39:11;13.00;99.90
48988;DHT22;34799;51.440;-2.534;2022-10-16T09:41:41;13.10;99.90
48988;DHT22;34799;51.440;-2.534;2022-10-16T09:47:19;13.40;99.90
48988;DHT22;34799;51.440;-2.534;2022-10-16T09:52:22;13.70;99.90
48988;DHT22;34799;51.440;-2.534;2022-10-16T09:54:55;13.80;99.90
48988;DHT22;34799;51.440;-2.534;2022-10-16T09:57:24;14.00;99.90
48988;DHT22;34799;51.440;-2.534;2022-10-16T09:59:52;14.00;99.90
48988;DHT22;34799;51.440;-2.534;2022-10-16T10:02:44;14.20;99.90
48988;DHT22;34799;51.440;-2.534;2022-10-16T10:05:22;14.30;99.90
48988;DHT22;34799;51.440;-2.534;2022-10-16T10:08:03;14.40;99.90
48988;DHT22;34799;51.440;-2.534;2022-10-16T10:10:41;14.40;99.90
48988;DHT22;34799;51.440;-2.534;2022-10-16T10:13:24;14.50;99.90
48988;DHT22;34799;51.440;-2.534;2022-10-16T10:15:52;14.50;99.90
48988;DHT22;34799;51.440;-2.534;2022-10-16T10:18:21;14.50;99.90
48988;DHT22;34799;51.440;-2.534;2022-10-16T10:21:01;14.50;99.90
48988;DHT22;34799;51.440;-2.534;2022-10-16T10:23:31;14.60;99.90
48988;DHT22;34799;51.440;-2.534;2022-10-16T10:26:04;14.50;99.90
48988;DHT22;34799;51.440;-2.534;2022-10-16T10:28:46;14.60;99.90
48988;DHT22;34799;51.440;-2.534;2022-10-16T10:31:29;14.60;99.90
48988;DHT22;34799;51.440;-2.534;2022-10-16T10:37:25;14.60;99.90
48988;DHT22;34799;51.440;-2.534;2022-10-16T10:40:17;14.50;99.90
48988;DHT22;34799;51.440;-2.534;2022-10-16T10:43:05;14.50;99.90
48988;DHT22;34799;51.440;-2.534;2022-10-16T10:45:46;14.50;99.90
48988;DHT22;34799;51.440;-2.534;2022-10-16T10:50:54;14.50;99.90
48988;DHT22;34799;51.440;-2.534;2022-10-16T10:53:36;14.60;99.90
48988;DHT22;34799;51.440;-2.534;2022-10-16T11:04:27;14.80;99.90
48988;DHT22;34799;51.440;-2.534;2022-10-16T11:07:36;14.90;99.90
48988;DHT22;34799;51.440;-2.534;2022-10-16T11:10:13;15.10;99.90
48988;DHT22;34799;51.440;-2.534;2022-10-16T11:12:45;15.20;99.90
48988;DHT22;34799;51.440;-2.534;2022-10-16T11:18:03;15.20;99.90
48988;DHT22;34799;51.440;-2.534;2022-10-16T11:20:34;15.30;99.90
48988;DHT22;34799;51.440;-2.534;2022-10-16T11:23:16;15.30;99.90
48988;DHT22;34799;51.440;-2.534;2022-10-16T11:25:46;15.30;99.90
48988;DHT22;34799;51.440;-2.534;2022-10-16T11:28:25;15.30;99.90
48988;DHT22;34799;51.440;-2.534;2022-10-16T11:31:16;15.40;99.90
48988;DHT22;34799;51.440;-2.534;2022-10-16T11:33:49;15.40;99.90
48988;DHT22;34799;51.440;-2.534;2022-10-16T11:36:25;15.40;99.90
48988;DHT22;34799;51.440;-2.534;2022-10-16T11:41:50;15.40;99.90
48988;DHT22;34799;51.440;-2.534;2022-10-16T11:44:44;15.50;99.90
48988;DHT22;34799;51.440;-2.534;2022-10-16T11:47:34;15.50;99.90
48988;DHT22;34799;51.440;-2.534;2022-10-16T11:56:06;15.80;99.90
48988;DHT22;34799;51.440;-2.534;2022-10-16T12:04:21;16.00;99.90
48988;DHT22;34799;51.440;-2.534;2022-10-16T12:07:13;16.10;99.90
48988;DHT22;34799;51.440;-2.534;2022-10-16T12:09:42;16.10;99.90
48988;DHT22;34799;51.440;-2.534;2022-10-16T12:12:27;16.20;99.90
48988;DHT22;34799;51.440;-2.534;2022-10-16T12:15:28;16.20;99.90
48988;DHT22;34799;51.440;-2.534;2022-10-16T12:18:19;16.30;99.90
48988;DHT22;34799;51.440;-2.534;2022-10-16T12:20:57;16.30;99.90
48988;DHT22;34799;51.440;-2.534;2022-10-16T12:23:56;16.30;99.90
48988;DHT22;34799;51.440;-2.534;2022-10-16T12:26:29;16.30;99.90
48988;DHT22;34799;51.440;-2.534;2022-10-16T12:29:34;16.40;99.90
48988;DHT22;34799;51.440;-2.534;2022-10-16T12:31:58;16.40;99.90
48988;DHT22;34799;51.440;-2.534;2022-10-16T12:34:32;16.50;99.90
48988;DHT22;34799;51.440;-2.534;2022-10-16T12:37:21;16.50;99.90
48988;DHT22;34799;51.440;-2.534;2022-10-16T12:39:52;16.50;99.90
48988;DHT22;34799;51.440;-2.534;2022-10-16T12:44:56;16.50;99.90
48988;DHT22;34799;51.440;-2.534;2022-10-16T12:49:58;16.60;99.90
48988;DHT22;34799;51.440;-2.534;2022-10-16T12:55:01;16.70;99.90
48988;DHT22;34799;51.440;-2.534;2022-10-16T12:58:02;17.00;99.90
48988;DHT22;34799;51.440;-2.534;2022-10-16T13:00:56;17.10;99.90
48988;DHT22;34799;51.440;-2.534;2022-10-16T13:03:34;17.30;99.90
48988;DHT22;34799;51.440;-2.534;2022-10-16T13:09:25;17.30;99.90
48988;DHT22;34799;51.440;-2.534;2022-10-16T13:12:05;17.30;99.90
48988;DHT22;34799;51.440;-2.534;2022-10-16T13:17:36;17.10;99.90
48988;DHT22;34799;51.440;-2.534;2022-10-16T13:20:17;17.20;99.90
48988;DHT22;34799;51.440;-2.534;2022-10-16T13:23:14;17.30;99.90
48988;DHT22;34799;51.440;-2.534;2022-10-16T13:25:49;17.30;99.90
48988;DHT22;34799;51.440;-2.534;2022-10-16T13:28:27;17.30;99.90
48988;DHT22;34799;51.440;-2.534;2022-10-16T13:30:58;17.30;99.90
48988;DHT22;34799;51.440;-2.534;2022-10-16T13:33:35;17.30;99.90
48988;DHT22;34799;51.440;-2.534;2022-10-16T13:36:04;17.30;99.90
48988;DHT22;34799;51.440;-2.534;2022-10-16T13:38:34;17.30;99.90
48988;DHT22;34799;51.440;-2.534;2022-10-16T13:41:03;17.30;99.90
48988;DHT22;34799;51.440;-2.534;2022-10-16T13:43:38;17.30;99.90
48988;DHT22;34799;51.440;-2.534;2022-10-16T13:46:12;17.20;99.90
48988;DHT22;34799;51.440;-2.534;2022-10-16T13:48:40;17.20;99.90
48988;DHT22;34799;51.440;-2.534;2022-10-16T13:51:12;17.20;99.90
48988;DHT22;34799;51.440;-2.534;2022-10-16T13:53:40;17.20;99.90
48988;DHT22;34799;51.440;-2.534;2022-10-16T13:56:11;17.20;99.90
48988;DHT22;34799;51.440;-2.534;2022-10-16T13:58:39;17.20;99.90
48988;DHT22;34799;51.440;-2.534;2022-10-16T14:03:47;17.20;99.90
48988;DHT22;34799;51.440;-2.534;2022-10-16T14:06:17;17.30;99.90
48988;DHT22;34799;51.440;-2.534;2022-10-16T14:09:04;17.30;99.90
48988;DHT22;34799;51.440;-2.534;2022-10-16T14:11:33;17.30;99.90
48988;DHT22;34799;51.440;-2.534;2022-10-16T14:14:02;17.40;99.90
48988;DHT22;34799;51.440;-2.534;2022-10-16T14:16:31;17.40;99.90
48988;DHT22;34799;51.440;-2.534;2022-10-16T14:19:00;17.40;99.90
48988;DHT22;34799;51.440;-2.534;2022-10-16T14:21:28;17.40;99.90
48988;DHT22;34799;51.440;-2.534;2022-10-16T14:23:56;17.40;99.90
48988;DHT22;34799;51.440;-2.534;2022-10-16T14:26:26;17.30;99.90
48988;DHT22;34799;51.440;-2.534;2022-10-16T14:29:18;17.30;99.90
48988;DHT22;34799;51.440;-2.534;2022-10-16T14:32:04;17.20;99.90
48988;DHT22;34799;51.440;-2.534;2022-10-16T14:34:34;17.20;99.90
48988;DHT22;34799;51.440;-2.534;2022-10-16T14:37:28;17.10;99.90
48988;DHT22;34799;51.440;-2.534;2022-10-16T14:39:57;17.10;99.90
48988;DHT22;34799;51.440;-2.534;2022-10-16T14:42:25;17.10;99.90
48988;DHT22;34799;51.440;-2.534;2022-10-16T14:44:54;17.00;99.90
48988;DHT22;34799;51.440;-2.534;2022-10-16T14:47:23;16.90;99.90
48988;DHT22;34799;51.440;-2.534;2022-10-16T14:49:54;16.90;99.90
48988;DHT22;34799;51.440;-2.534;2022-10-16T14:52:24;16.80;99.90
48988;DHT22;34799;51.440;-2.534;2022-10-16T14:54:51;16.70;99.90
48988;DHT22;34799;51.440;-2.534;2022-10-16T14:57:25;16.80;99.90
48988;DHT22;34799;51.440;-2.534;2022-10-16T14:59:54;16.80;99.90
48988;DHT22;34799;51.440;-2.534;2022-10-16T15:02:33;16.80;99.90
48988;DHT22;34799;51.440;-2.534;2022-10-16T15:07:43;16.80;99.90
48988;DHT22;34799;51.440;-2.534;2022-10-16T15:10:10;16.80;99.90
48988;DHT22;34799;51.440;-2.534;2022-10-16T15:12:38;16.90;99.90
48988;DHT22;34799;51.440;-2.534;2022-10-16T15:15:35;16.90;99.90
48988;DHT22;34799;51.440;-2.534;2022-10-16T15:18:04;16.90;99.90
48988;DHT22;34799;51.440;-2.534;2022-10-16T15:20:36;16.90;99.90
48988;DHT22;34799;51.440;-2.534;2022-10-16T15:23:15;16.90;99.90
48988;DHT22;34799;51.440;-2.534;2022-10-16T15:25:57;16.90;99.90
48988;DHT22;34799;51.440;-2.534;2022-10-16T15:28:24;16.80;99.90
48988;DHT22;34799;51.440;-2.534;2022-10-16T15:30:55;16.80;99.90
48988;DHT22;34799;51.440;-2.534;2022-10-16T15:33:26;16.80;99.90
48988;DHT22;34799;51.440;-2.534;2022-10-16T15:36:00;16.80;99.90
48988;DHT22;34799;51.440;-2.534;2022-10-16T15:38:30;16.80;99.90
48988;DHT22;34799;51.440;-2.534;2022-10-16T15:40:57;16.80;99.90
48988;DHT22;34799;51.440;-2.534;2022-10-16T15:43:24;16.80;99.90
48988;DHT22;34799;51.440;-2.534;2022-10-16T15:46:00;16.80;99.90
48988;DHT22;34799;51.440;-2.534;2022-10-16T15:48:29;16.80;99.90
48988;DHT22;34799;51.440;-2.534;2022-10-16T15:50:57;16.70;99.90
48988;DHT22;34799;51.440;-2.534;2022-10-16T15:53:24;16.70;99.90
48988;DHT22;34799;51.440;-2.534;2022-10-16T15:55:51;16.60;99.90
48988;DHT22;34799;51.440;-2.534;2022-10-16T15:58:18;16.60;99.90
48988;DHT22;34799;51.440;-2.534;2022-10-16T16:00:55;16.60;99.90
48988;DHT22;34799;51.440;-2.534;2022-10-16T16:03:24;16.60;99.90
48988;DHT22;34799;51.440;-2.534;2022-10-16T16:05:51;16.50;99.90
48988;DHT22;34799;51.440;-2.534;2022-10-16T16:08:18;16.50;99.90
48988;DHT22;34799;51.440;-2.534;2022-10-16T16:10:45;16.50;99.90
48988;DHT22;34799;51.440;-2.534;2022-10-16T16:13:12;16.40;99.90
48988;DHT22;34799;51.440;-2.534;2022-10-16T16:15:41;16.30;99.90
48988;DHT22;34799;51.440;-2.534;2022-10-16T16:18:08;16.30;99.90
48988;DHT22;34799;51.440;-2.534;2022-10-16T16:20:36;16.30;99.90
48988;DHT22;34799;51.440;-2.534;2022-10-16T16:23:03;16.30;99.90
48988;DHT22;34799;51.440;-2.534;2022-10-16T16:25:30;16.20;99.90
48988;DHT22;34799;51.440;-2.534;2022-10-16T16:27:57;16.10;99.90
48988;DHT22;34799;51.440;-2.534;2022-10-16T16:30:25;16.00;99.90
48988;DHT22;34799;51.440;-2.534;2022-10-16T16:32:53;16.00;99.90
48988;DHT22;34799;51.440;-2.534;2022-10-16T16:35:21;16.00;99.90
48988;DHT22;34799;51.440;-2.534;2022-10-16T16:37:48;16.00;99.90
48988;DHT22;34799;51.440;-2.534;2022-10-16T16:40:15;15.90;99.90
48988;DHT22;34799;51.440;-2.534;2022-10-16T16:42:43;15.90;99.90
48988;DHT22;34799;51.440;-2.534;2022-10-16T16:45:11;15.90;99.90
48988;DHT22;34799;51.440;-2.534;2022-10-16T16:47:39;15.80;99.90
48988;DHT22;34799;51.440;-2.534;2022-10-16T16:50:06;15.80;99.90
48988;DHT22;34799;51.440;-2.534;2022-10-16T16:52:35;15.80;99.90
48988;DHT22;34799;51.440;-2.534;2022-10-16T16:55:03;15.80;99.90
48988;DHT22;34799;51.440;-2.534;2022-10-16T16:57:30;15.80;99.90
48988;DHT22;34799;51.440;-2.534;2022-10-16T16:59:57;15.80;99.90
48988;DHT22;34799;51.440;-2.534;2022-10-16T17:02:24;15.70;99.90
48988;DHT22;34799;51.440;-2.534;2022-10-16T17:04:53;15.70;99.90
48988;DHT22;34799;51.440;-2.534;2022-10-16T17:07:23;15.70;99.90
48988;DHT22;34799;51.440;-2.534;2022-10-16T17:09:52;15.50;99.90
48988;DHT22;34799;51.440;-2.534;2022-10-16T17:12:22;15.40;99.90
48988;DHT22;34799;51.440;-2.534;2022-10-16T17:14:50;15.30;99.90
48988;DHT22;34799;51.440;-2.534;2022-10-16T17:17:17;15.30;99.90
48988;DHT22;34799;51.440;-2.534;2022-10-16T17:19:44;15.30;99.90
48988;DHT22;34799;51.440;-2.534;2022-10-16T17:22:12;15.20;99.90
48988;DHT22;34799;51.440;-2.534;2022-10-16T17:24:39;15.10;99.90
48988;DHT22;34799;51.440;-2.534;2022-10-16T17:27:07;15.10;99.90
48988;DHT22;34799;51.440;-2.534;2022-10-16T17:29:34;15.00;99.90
48988;DHT22;34799;51.440;-2.534;2022-10-16T17:32:01;15.00;99.90
48988;DHT22;34799;51.440;-2.534;2022-10-16T17:34:28;15.00;99.90